createdAt,value
2019-01-24T00:03:49.181Z,-4.90
2019-01-24T00:06:37.178Z,-4.80
2019-01-24T00:09:25.129Z,-4.90
2019-01-24T00:12:13.074Z,-4.90
2019-01-24T00:15:00.969Z,-5.00
2019-01-24T00:17:29.686Z,-5.10
2019-01-24T00:19:58.263Z,-5.20
2019-01-24T00:22:26.841Z,-5.20
2019-01-24T00:24:55.465Z,-5.10
2019-01-24T00:27:24.038Z,-5.00
2019-01-24T00:29:52.609Z,-5.00
2019-01-24T00:32:21.211Z,-5.10
2019-01-24T00:35:09.876Z,-5.00
2019-01-24T00:37:57.806Z,-5.00
2019-01-24T00:40:45.744Z,-5.10
2019-01-24T00:43:33.695Z,-5.10
2019-01-24T00:46:21.596Z,-5.20
2019-01-24T00:49:09.824Z,-5.20
2019-01-24T00:51:50.638Z,-5.10
2019-01-24T00:54:31.632Z,-5.10
2019-01-24T00:57:12.809Z,-5.10
2019-01-24T00:59:54.098Z,-5.10
2019-01-24T01:02:34.501Z,-5.10
2019-01-24T01:05:15.797Z,-5.10
2019-01-24T01:07:56.810Z,-5.20
2019-01-24T01:10:37.630Z,-5.20
2019-01-24T01:13:18.138Z,-5.40
2019-01-24T01:15:59.049Z,-5.50
2019-01-24T01:18:39.839Z,-5.60
2019-01-24T01:21:08.526Z,-5.60
2019-01-24T01:23:37.141Z,-5.60
2019-01-24T01:26:05.849Z,-5.60
2019-01-24T01:28:34.415Z,-5.60
2019-01-24T01:31:03.118Z,-5.50
2019-01-24T01:33:32.530Z,-5.30
2019-01-24T01:36:01.140Z,-5.40
2019-01-24T01:38:29.718Z,-5.40
2019-01-24T01:40:58.289Z,-5.40
2019-01-24T01:43:46.224Z,-5.40
2019-01-24T01:46:34.296Z,-5.40
2019-01-24T01:49:22.232Z,-5.30
2019-01-24T01:52:02.952Z,-5.30
2019-01-24T01:54:44.282Z,-5.30
2019-01-24T01:57:25.406Z,-5.30
2019-01-24T02:00:06.185Z,-5.40
2019-01-24T02:02:47.407Z,-5.40
2019-01-24T02:05:28.516Z,-5.30
2019-01-24T02:08:09.330Z,-5.30
2019-01-24T02:10:50.189Z,-5.30
2019-01-24T02:13:31.189Z,-5.20
2019-01-24T02:16:12.507Z,-5.20
2019-01-24T02:18:53.224Z,-5.10
2019-01-24T02:21:34.573Z,-5.10
2019-01-24T02:24:18.122Z,-5.00
2019-01-24T02:26:59.281Z,-5.00
2019-01-24T02:29:40.465Z,-5.00
2019-01-24T02:32:21.657Z,-5.10
2019-01-24T02:35:02.802Z,-5.00
2019-01-24T02:37:43.807Z,-5.00
2019-01-24T02:40:24.559Z,-5.20
2019-01-24T02:43:05.815Z,-5.10
2019-01-24T02:45:46.341Z,-5.10
2019-01-24T02:48:27.074Z,-5.10
2019-01-24T02:51:07.889Z,-5.10
2019-01-24T02:53:49.083Z,-4.90
2019-01-24T02:56:30.187Z,-4.90
2019-01-24T02:59:11.043Z,-4.90
2019-01-24T03:01:52.104Z,-4.90
2019-01-24T03:04:32.609Z,-4.90
2019-01-24T03:07:13.217Z,-5.00
2019-01-24T03:09:54.306Z,-5.00
2019-01-24T03:12:35.560Z,-5.10
2019-01-24T03:15:16.394Z,-5.00
2019-01-24T03:17:57.305Z,-4.90
2019-01-24T03:20:38.101Z,-4.90
2019-01-24T03:23:19.112Z,-5.00
2019-01-24T03:25:59.870Z,-5.00
2019-01-24T03:28:40.633Z,-5.10
2019-01-24T03:31:21.757Z,-5.10
2019-01-24T03:34:02.647Z,-5.20
2019-01-24T03:36:43.634Z,-5.20
2019-01-24T03:39:24.760Z,-5.20
2019-01-24T03:42:05.548Z,-5.10
2019-01-24T03:44:46.767Z,-5.10
2019-01-24T03:47:27.694Z,-5.10
2019-01-24T03:50:08.447Z,-5.00
2019-01-24T03:52:49.458Z,-5.10
2019-01-24T03:55:30.133Z,-5.10
2019-01-24T03:58:10.556Z,-5.10
2019-01-24T04:00:51.725Z,-5.10
2019-01-24T04:03:32.094Z,-5.10
2019-01-24T04:06:13.397Z,-5.20
2019-01-24T04:08:54.005Z,-5.10
2019-01-24T04:11:35.258Z,-5.10
2019-01-24T04:14:16.055Z,-5.20
2019-01-24T04:16:57.234Z,-5.20
2019-01-24T04:19:37.024Z,-5.10
2019-01-24T04:22:24.964Z,-5.10
2019-01-24T04:25:13.001Z,-5.00
2019-01-24T04:28:00.908Z,-5.10
2019-01-24T04:30:48.850Z,-5.10
2019-01-24T04:33:36.752Z,-5.00
2019-01-24T04:36:24.722Z,-5.00
2019-01-24T04:39:12.605Z,-5.00
2019-01-24T04:42:00.569Z,-5.00
2019-01-24T04:44:48.483Z,-4.90
2019-01-24T04:47:36.451Z,-4.80
2019-01-24T04:50:24.361Z,-4.70
2019-01-24T04:53:12.325Z,-4.60
2019-01-24T04:55:53.437Z,-4.60
2019-01-24T04:58:34.402Z,-4.40
2019-01-24T05:01:15.385Z,-4.30
2019-01-24T05:03:44.163Z,-4.20
2019-01-24T05:06:12.776Z,-4.10
2019-01-24T05:08:41.345Z,-4.10
2019-01-24T05:11:09.914Z,-4.00
2019-01-24T05:13:38.508Z,-4.10
2019-01-24T05:16:07.126Z,-4.10
2019-01-24T05:18:55.027Z,-4.10
2019-01-24T05:21:43.005Z,-4.10
2019-01-24T05:24:30.916Z,-4.00
2019-01-24T05:27:18.875Z,-4.00
2019-01-24T05:30:26.093Z,-4.00
2019-01-24T05:33:14.032Z,-4.00
2019-01-24T05:36:01.977Z,-4.00
2019-01-24T05:38:49.890Z,-4.00
2019-01-24T05:41:37.831Z,-4.00
2019-01-24T05:44:25.746Z,-4.00
2019-01-24T05:47:13.678Z,-3.90
2019-01-24T05:50:01.695Z,-3.90
2019-01-24T05:52:49.605Z,-3.90
2019-01-24T05:55:37.577Z,-3.90
2019-01-24T05:58:18.281Z,-3.90
2019-01-24T06:00:58.769Z,-3.90
2019-01-24T06:03:39.995Z,-3.80
2019-01-24T06:06:20.326Z,-3.50
2019-01-24T06:09:01.094Z,-3.40
2019-01-24T06:11:40.409Z,-3.60
2019-01-24T06:14:28.336Z,-3.80
2019-01-24T06:17:16.309Z,-3.80
2019-01-24T06:20:24.957Z,-3.90
2019-01-24T06:23:12.902Z,-3.90
2019-01-24T06:25:53.262Z,-3.80
2019-01-24T06:28:33.827Z,-3.80
2019-01-24T06:31:02.419Z,-3.70
2019-01-24T06:33:30.988Z,-3.70
2019-01-24T06:36:00.521Z,-3.70
2019-01-24T06:38:29.167Z,-3.80
2019-01-24T06:40:57.781Z,-3.80
2019-01-24T06:43:26.358Z,-3.70
2019-01-24T06:45:54.921Z,-3.70
2019-01-24T06:48:42.910Z,-3.70
2019-01-24T06:51:30.789Z,-3.70
2019-01-24T06:54:18.736Z,-3.70
2019-01-24T06:57:06.644Z,-3.60
2019-01-24T06:59:54.607Z,-3.60
2019-01-24T07:02:42.579Z,-3.70
2019-01-24T07:05:30.512Z,-3.70
2019-01-24T07:08:18.541Z,-3.80
2019-01-24T07:11:06.473Z,-3.90
2019-01-24T07:13:54.385Z,-3.90
2019-01-24T07:16:42.321Z,-3.90
2019-01-24T07:19:10.888Z,-3.90
2019-01-24T07:21:39.488Z,-3.80
2019-01-24T07:24:08.059Z,-3.80
2019-01-24T07:26:36.688Z,-3.80
2019-01-24T07:29:05.397Z,-3.80
2019-01-24T07:31:33.968Z,-3.70
2019-01-24T07:34:02.569Z,-3.60
2019-01-24T07:36:31.606Z,-3.60
2019-01-24T07:39:19.508Z,-3.60
2019-01-24T07:42:07.475Z,-3.70
2019-01-24T07:44:55.390Z,-3.70
2019-01-24T07:47:43.325Z,-3.80
2019-01-24T07:50:31.226Z,-3.70
2019-01-24T07:59:07.033Z,-3.80
2019-01-24T08:01:55.009Z,-3.70
2019-01-24T08:04:42.921Z,-3.60
2019-01-24T08:07:30.857Z,-3.60
2019-01-24T08:10:39.481Z,-3.50
2019-01-24T08:13:08.088Z,-3.50
2019-01-24T08:15:36.728Z,-3.50
2019-01-24T08:18:05.595Z,-3.50
2019-01-24T08:20:34.276Z,-3.40
2019-01-24T08:23:02.886Z,-3.40
2019-01-24T08:25:31.484Z,-3.40
2019-01-24T08:28:12.727Z,-3.40
2019-01-24T08:30:53.717Z,-3.50
2019-01-24T08:33:34.335Z,-3.50
2019-01-24T08:36:15.668Z,-3.50
2019-01-24T08:38:56.547Z,-3.50
2019-01-24T08:41:37.489Z,-3.40
2019-01-24T08:44:18.536Z,-3.40
2019-01-24T08:46:59.228Z,-3.30
2019-01-24T08:49:39.869Z,-3.20
2019-01-24T08:52:20.412Z,-3.10
2019-01-24T08:55:01.404Z,-3.00
2019-01-24T08:57:42.403Z,-3.00
2019-01-24T09:00:22.805Z,-3.00
2019-01-24T09:03:03.941Z,-3.00
2019-01-24T09:05:44.433Z,-3.10
2019-01-24T09:08:24.980Z,-3.10
2019-01-24T09:11:05.777Z,-3.10
2019-01-24T09:13:47.797Z,-3.00
2019-01-24T09:16:28.263Z,-3.10
2019-01-24T09:19:08.613Z,-3.10
2019-01-24T09:21:49.693Z,-3.20
2019-01-24T09:24:30.850Z,-3.20
2019-01-24T09:27:11.392Z,-3.10
2019-01-24T09:29:52.076Z,-3.10
2019-01-24T09:32:32.992Z,-3.10
2019-01-24T09:37:56.228Z,-3.00
2019-01-24T09:40:37.040Z,-3.10
2019-01-24T09:43:17.597Z,-3.00
2019-01-24T09:48:40.810Z,-3.10
2019-01-24T09:51:21.918Z,-3.10
2019-01-24T09:54:02.526Z,-3.10
2019-01-24T09:56:43.202Z,-3.00
2019-01-24T09:59:23.949Z,-3.00
2019-01-24T10:02:05.081Z,-3.00
2019-01-24T10:04:33.657Z,-2.90
2019-01-24T10:07:02.220Z,-2.80
2019-01-24T10:09:50.172Z,-2.80
2019-01-24T10:12:38.084Z,-2.70
2019-01-24T10:18:21.777Z,-2.70
2019-01-24T10:21:09.475Z,-2.70
2019-01-24T10:23:57.373Z,-2.50
2019-01-24T10:26:45.309Z,-2.50
2019-01-24T10:29:25.840Z,-2.50
2019-01-24T10:32:06.725Z,-2.50
2019-01-24T10:34:47.849Z,-2.60
2019-01-24T10:37:28.640Z,-2.70
2019-01-24T10:39:57.225Z,-2.80
2019-01-24T10:42:25.793Z,-2.80
2019-01-24T10:44:54.417Z,-2.70
2019-01-24T10:47:23.046Z,-2.70
2019-01-24T10:49:51.690Z,-2.50
2019-01-24T10:52:20.313Z,-2.50
2019-01-24T10:54:48.928Z,-2.60
2019-01-24T10:57:36.874Z,-2.70
2019-01-24T11:00:45.530Z,-2.60
2019-01-24T11:03:33.485Z,-2.70
2019-01-24T11:06:21.414Z,-2.70
2019-01-24T11:09:09.713Z,-2.70
2019-01-24T11:11:57.626Z,-2.80
2019-01-24T11:14:45.557Z,-2.80
2019-01-24T11:17:33.508Z,-2.80
2019-01-24T11:20:21.492Z,-2.60
2019-01-24T11:23:09.429Z,-2.50
2019-01-24T11:25:57.337Z,-2.40
2019-01-24T11:28:37.951Z,-2.30
2019-01-24T11:31:18.565Z,-2.40
2019-01-24T11:33:58.971Z,-2.50
2019-01-24T11:36:39.757Z,-2.60
2019-01-24T11:39:20.620Z,-2.50
2019-01-24T11:42:01.693Z,-2.50
2019-01-24T11:44:42.981Z,-2.60
2019-01-24T11:47:24.086Z,-2.60
2019-01-24T11:50:05.024Z,-2.60
2019-01-24T11:52:45.554Z,-2.70
2019-01-24T11:55:26.726Z,-2.70
2019-01-24T11:58:07.177Z,-2.60
2019-01-24T12:00:49.264Z,-2.60
2019-01-24T12:03:30.365Z,-2.60
2019-01-24T12:06:11.060Z,-2.50
2019-01-24T12:08:51.808Z,-2.60
2019-01-24T12:11:32.506Z,-2.60
2019-01-24T12:14:13.506Z,-2.60
2019-01-24T12:16:54.582Z,-2.60
2019-01-24T12:19:35.530Z,-2.60
2019-01-24T12:22:16.161Z,-2.60
2019-01-24T12:24:57.269Z,-2.70
2019-01-24T12:27:37.757Z,-2.70
2019-01-24T12:30:18.335Z,-2.70
2019-01-24T12:32:59.585Z,-2.60
2019-01-24T12:35:40.521Z,-2.70
2019-01-24T12:38:21.251Z,-2.80
2019-01-24T12:41:02.415Z,-2.70
2019-01-24T12:43:43.645Z,-2.70
2019-01-24T12:46:24.117Z,-2.60
2019-01-24T12:49:04.588Z,-2.50
2019-01-24T12:51:45.593Z,-2.60
2019-01-24T12:54:26.022Z,-2.60
2019-01-24T12:57:07.277Z,-2.60
2019-01-24T12:59:48.381Z,-2.60
2019-01-24T13:02:29.725Z,-2.60
2019-01-24T13:05:10.514Z,-2.60
2019-01-24T13:07:51.084Z,-2.60
2019-01-24T13:10:32.074Z,-2.60
2019-01-24T13:13:13.270Z,-2.60
2019-01-24T13:15:54.077Z,-2.60
2019-01-24T13:18:35.408Z,-2.50
2019-01-24T13:21:16.016Z,-2.40
2019-01-24T13:23:56.400Z,-2.50
2019-01-24T13:26:37.145Z,-2.50
2019-01-24T13:29:17.552Z,-2.50
2019-01-24T13:31:58.357Z,-2.40
2019-01-24T13:34:39.344Z,-2.30
2019-01-24T13:37:25.771Z,-2.20
2019-01-24T13:40:02.159Z,-2.10
2019-01-24T13:42:43.070Z,-2.10
2019-01-24T13:45:24.413Z,-2.10
2019-01-24T13:48:05.653Z,-2.10
2019-01-24T13:50:46.590Z,-2.70
2019-01-24T13:53:27.401Z,-2.10
2019-01-24T13:56:08.119Z,-2.20
2019-01-24T13:58:48.764Z,-2.30
2019-01-24T14:01:29.413Z,-2.20
2019-01-24T14:04:10.040Z,-2.10
2019-01-24T14:06:50.859Z,-2.10
2019-01-24T14:09:32.002Z,-2.10
2019-01-24T14:12:12.777Z,-2.00
2019-01-24T14:14:53.584Z,-2.00
2019-01-24T14:17:34.770Z,-2.00
2019-01-24T14:20:15.630Z,-2.10
2019-01-24T14:22:56.587Z,-2.10
2019-01-24T14:25:25.191Z,-2.10
2019-01-24T14:27:53.795Z,-2.20
2019-01-24T14:30:42.202Z,-2.20
2019-01-24T14:33:30.571Z,-2.20
2019-01-24T14:36:25.104Z,-2.20
2019-01-24T14:42:15.691Z,-2.10
2019-01-24T14:45:24.360Z,-2.10
2019-01-24T14:48:12.281Z,-2.00
2019-01-24T14:51:00.796Z,-2.10
2019-01-24T14:53:41.895Z,-2.10
2019-01-24T14:56:22.486Z,-2.00
2019-01-24T14:59:03.492Z,-2.00
2019-01-24T15:01:44.727Z,-2.00
2019-01-24T15:04:26.048Z,-2.00
2019-01-24T15:07:06.463Z,-2.00
2019-01-24T15:09:47.331Z,-2.10
2019-01-24T15:12:28.541Z,-2.10
2019-01-24T15:15:09.642Z,-2.10
2019-01-24T15:17:50.524Z,-2.00
2019-01-24T15:20:31.467Z,-2.10
2019-01-24T15:23:00.148Z,-2.10
2019-01-24T15:25:28.852Z,-2.10
2019-01-24T15:27:57.493Z,-2.20
2019-01-24T15:30:38.691Z,-2.30
2019-01-24T15:33:19.090Z,-2.20
2019-01-24T15:36:00.890Z,-2.20
2019-01-24T15:38:42.121Z,-2.10
2019-01-24T15:41:23.330Z,-2.10
2019-01-24T15:44:04.600Z,-2.10
2019-01-24T15:46:45.561Z,-2.20
2019-01-24T15:49:26.384Z,-2.20
2019-01-24T15:52:06.759Z,-2.20
2019-01-24T15:54:48.302Z,-2.20
2019-01-24T15:57:29.396Z,-2.30
2019-01-24T16:00:11.222Z,-2.20
2019-01-24T16:02:52.330Z,-2.10
2019-01-24T16:05:33.128Z,-2.10
2019-01-24T16:08:14.193Z,-2.10
2019-01-24T16:10:54.537Z,-2.10
2019-01-24T16:13:35.017Z,-2.20
2019-01-24T16:16:16.238Z,-2.20
2019-01-24T16:18:57.162Z,-2.20
2019-01-24T16:21:38.000Z,-2.20
2019-01-24T16:24:18.980Z,-2.10
2019-01-24T16:26:59.856Z,-2.10
2019-01-24T16:29:40.600Z,-2.10
2019-01-24T16:32:21.777Z,-2.10
2019-01-24T16:35:02.557Z,-2.10
2019-01-24T16:37:43.696Z,-2.20
2019-01-24T16:40:24.965Z,-2.20
2019-01-24T16:43:06.573Z,-2.20
2019-01-24T16:45:47.865Z,-2.20
2019-01-24T16:48:28.269Z,-2.20
2019-01-24T16:50:56.872Z,-2.20
2019-01-24T16:53:25.440Z,-2.20
2019-01-24T16:55:54.015Z,-2.20
2019-01-24T16:58:42.080Z,-2.20
2019-01-24T17:01:29.967Z,-2.20
2019-01-24T17:04:17.892Z,-2.20
2019-01-24T17:07:05.917Z,-2.20
2019-01-24T17:09:53.860Z,-2.20
2019-01-24T17:15:48.741Z,-2.20
2019-01-24T17:18:36.693Z,-2.20
2019-01-24T17:21:24.620Z,-2.20
2019-01-24T17:24:12.586Z,-2.20
2019-01-24T17:27:00.493Z,-2.10
2019-01-24T17:29:48.440Z,-2.00
2019-01-24T17:32:29.018Z,-2.00
2019-01-24T17:35:09.965Z,-2.00
2019-01-24T17:37:50.592Z,-2.00
2019-01-24T17:40:31.527Z,-2.00
2019-01-24T17:43:12.385Z,-2.10
2019-01-24T17:45:53.290Z,-2.20
2019-01-24T17:48:34.395Z,-2.10
2019-01-24T17:51:15.665Z,-2.20
2019-01-24T17:53:57.086Z,-2.70
2019-01-24T17:56:38.079Z,-2.20
2019-01-24T17:59:18.996Z,-2.30
2019-01-24T18:01:47.592Z,-2.30
2019-01-24T18:04:21.666Z,-2.40
2019-01-24T18:07:05.858Z,-2.70
2019-01-24T18:13:00.778Z,-2.30
2019-01-24T18:15:48.693Z,-2.20
2019-01-24T18:18:37.915Z,-2.10
2019-01-24T18:24:33.201Z,-2.10
2019-01-24T18:27:21.111Z,-2.10
2019-01-24T18:30:29.779Z,-2.20
2019-01-24T18:33:10.333Z,-2.10
2019-01-24T18:35:39.008Z,-2.00
2019-01-24T18:38:08.046Z,-2.00
2019-01-24T18:40:36.770Z,-1.90
2019-01-24T18:43:07.906Z,-2.00
2019-01-24T18:45:39.695Z,-2.00
2019-01-24T18:48:08.437Z,-2.10
2019-01-24T18:50:37.215Z,-2.10
2019-01-24T18:53:25.160Z,-2.10
2019-01-24T18:55:53.814Z,-2.10
2019-01-24T18:58:41.794Z,-2.00
2019-01-24T19:01:29.696Z,-2.00
2019-01-24T19:04:17.823Z,-2.00
2019-01-24T19:07:05.729Z,-2.10
2019-01-24T19:09:53.676Z,-2.10
2019-01-24T19:12:34.533Z,-2.10
2019-01-24T19:15:16.173Z,-2.10
2019-01-24T19:17:57.501Z,-2.20
2019-01-24T19:20:38.369Z,-2.10
2019-01-24T19:23:19.201Z,-2.10
2019-01-24T19:25:59.994Z,-2.00
2019-01-24T19:28:28.605Z,-2.00
2019-01-24T19:30:57.190Z,-2.00
2019-01-24T19:33:37.790Z,-2.00
2019-01-24T19:36:18.696Z,-1.90
2019-01-24T19:38:59.853Z,-1.90
2019-01-24T19:41:40.885Z,-1.90
2019-01-24T19:44:22.054Z,-1.90
2019-01-24T19:47:03.062Z,-1.80
2019-01-24T19:49:44.143Z,-1.80
2019-01-24T19:52:25.259Z,-1.70
2019-01-24T19:55:06.113Z,-1.50
2019-01-24T19:57:46.442Z,-1.50
2019-01-24T20:00:27.289Z,-1.60
2019-01-24T20:03:08.339Z,-1.60
2019-01-24T20:05:50.537Z,-1.70
2019-01-24T20:08:31.656Z,-1.70
2019-01-24T20:11:12.445Z,-1.60
2019-01-24T20:13:53.189Z,-1.70
2019-01-24T20:16:33.642Z,-1.80
2019-01-24T20:19:14.350Z,-1.80
2019-01-24T20:21:54.934Z,-1.80
2019-01-24T20:24:36.411Z,-1.80
2019-01-24T20:27:17.512Z,-1.80
2019-01-24T20:29:58.515Z,-1.90
2019-01-24T20:32:38.965Z,-1.80
2019-01-24T20:35:19.428Z,-1.80
2019-01-24T20:38:00.257Z,-1.80
2019-01-24T20:40:40.990Z,-1.80
2019-01-24T20:43:21.671Z,-1.90
2019-01-24T20:46:00.692Z,-2.00
2019-01-24T20:48:48.645Z,-2.10
2019-01-24T20:51:36.557Z,-2.10
2019-01-24T20:54:05.355Z,-2.10
2019-01-24T20:56:53.305Z,-2.10
2019-01-24T21:02:15.590Z,-2.20
2019-01-24T21:04:44.260Z,-2.20
2019-01-24T21:07:12.887Z,-2.30
2019-01-24T21:10:00.797Z,-2.20
2019-01-24T21:12:48.839Z,-2.10
2019-01-24T21:15:36.833Z,-2.00
2019-01-24T21:18:24.797Z,-1.90
2019-01-24T21:21:12.781Z,-1.90
2019-01-24T21:24:00.909Z,-2.10
2019-01-24T21:26:48.810Z,-2.10
2019-01-24T21:29:36.771Z,-2.10
2019-01-24T21:32:24.683Z,-2.10
2019-01-24T21:35:05.325Z,-2.00
2019-01-24T21:37:45.756Z,-2.00
2019-01-24T21:40:26.209Z,-2.00
2019-01-24T21:43:07.158Z,-2.00
2019-01-24T21:45:47.761Z,-1.90
2019-01-24T21:48:28.853Z,-1.80
2019-01-24T21:51:11.349Z,-1.80
2019-01-24T21:53:52.405Z,-1.70
2019-01-24T21:56:33.501Z,-1.70
2019-01-24T21:59:14.017Z,-1.80
2019-01-24T22:01:54.780Z,-1.80
2019-01-24T22:04:36.100Z,-1.80
2019-01-24T22:07:16.744Z,-1.80
2019-01-24T22:09:57.757Z,-1.90
2019-01-24T22:12:39.102Z,-1.90
2019-01-24T22:15:19.546Z,-2.00
2019-01-24T22:18:00.018Z,-2.00
2019-01-24T22:20:40.423Z,-2.00
2019-01-24T22:23:20.881Z,-2.00
2019-01-24T22:26:02.053Z,-2.00
2019-01-24T22:28:43.258Z,-2.00
2019-01-24T22:31:24.792Z,-2.00
2019-01-24T22:34:05.947Z,-2.00
2019-01-24T22:36:46.585Z,-2.00
2019-01-24T22:39:27.181Z,-2.00
2019-01-24T22:42:08.387Z,-2.00
2019-01-24T22:44:49.673Z,-2.00
2019-01-24T22:47:30.424Z,-1.90
2019-01-24T22:50:11.590Z,-2.00
2019-01-24T22:52:51.902Z,-2.00
2019-01-24T22:55:32.865Z,-1.90
2019-01-24T22:58:13.828Z,-1.90
2019-01-24T23:00:55.247Z,-1.90
2019-01-24T23:03:35.645Z,-1.80
2019-01-24T23:06:04.762Z,-1.80
2019-01-24T23:08:33.425Z,-1.80
2019-01-24T23:11:02.001Z,-1.80
2019-01-24T23:13:30.565Z,-1.80
2019-01-24T23:15:59.163Z,-1.80
2019-01-24T23:18:47.149Z,-1.80
2019-01-24T23:21:35.165Z,-1.80
2019-01-24T23:24:15.685Z,-1.80
2019-01-24T23:26:56.826Z,-1.80
2019-01-24T23:29:37.502Z,-1.80
2019-01-24T23:32:18.099Z,-1.80
2019-01-24T23:34:59.210Z,-1.70
2019-01-24T23:37:38.612Z,-1.70
2019-01-24T23:40:26.541Z,-1.70
2019-01-24T23:43:07.729Z,-1.70
2019-01-24T23:45:36.406Z,-1.60
2019-01-24T23:48:05.292Z,-1.60
2019-01-24T23:50:33.926Z,-1.60
2019-01-24T23:53:02.489Z,-1.60
2019-01-24T23:55:31.056Z,-1.60
2019-01-24T23:57:59.643Z,-1.60
